createdAt,value
2017-07-28T00:00:49.968Z,23
2017-07-28T00:02:00.316Z,22.92
2017-07-28T00:03:10.414Z,22.92
2017-07-28T00:04:20.769Z,22.92
2017-07-28T00:05:31.128Z,22.86
2017-07-28T00:06:41.464Z,22.86
2017-07-28T00:07:51.822Z,22.78
2017-07-28T00:09:02.223Z,22.82
2017-07-28T00:10:12.558Z,22.79
2017-07-28T00:11:22.896Z,22.69
2017-07-28T00:12:33.239Z,22.66
2017-07-28T00:13:42.964Z,22.67
2017-07-28T00:14:52.761Z,22.67
2017-07-28T00:16:03.129Z,22.66
2017-07-28T00:17:13.464Z,22.61
2017-07-28T00:18:23.497Z,22.57
2017-07-28T00:19:33.853Z,22.63
2017-07-28T00:20:43.888Z,22.64
2017-07-28T00:21:53.613Z,22.61
2017-07-28T00:23:03.968Z,22.55
2017-07-28T00:24:14.007Z,22.67
2017-07-28T00:25:24.354Z,22.64
2017-07-28T00:26:34.780Z,22.63
2017-07-28T00:27:44.817Z,22.55
2017-07-28T00:28:55.151Z,22.6
2017-07-28T00:30:05.191Z,22.67
2017-07-28T00:31:15.540Z,22.64
2017-07-28T00:32:25.944Z,22.61
2017-07-28T00:33:36.295Z,22.55
2017-07-28T00:34:46.658Z,22.55
2017-07-28T00:35:57.002Z,22.55
2017-07-28T00:37:07.036Z,22.59
2017-07-28T00:38:17.451Z,22.57
2017-07-28T00:39:27.810Z,22.59
2017-07-28T00:40:37.852Z,22.6
2017-07-28T00:41:48.184Z,22.55
2017-07-28T00:42:58.223Z,22.61
2017-07-28T00:44:08.616Z,22.64
2017-07-28T00:45:18.648Z,22.64
2017-07-28T00:46:29.005Z,22.66
2017-07-28T00:47:39.052Z,22.69
2017-07-28T00:48:49.398Z,22.67
2017-07-28T00:49:59.815Z,22.7
2017-07-28T00:51:10.153Z,22.69
2017-07-28T00:52:20.182Z,22.66
2017-07-28T00:53:30.583Z,22.7
2017-07-28T00:54:40.921Z,22.71
2017-07-28T00:55:51.310Z,22.66
2017-07-28T00:57:01.646Z,22.73
2017-07-28T00:58:12.002Z,22.7
2017-07-28T00:59:22.342Z,22.7
2017-07-28T01:00:32.674Z,22.71
2017-07-28T01:01:43.068Z,22.67
2017-07-28T01:02:53.419Z,22.67
2017-07-28T01:04:03.772Z,22.7
2017-07-28T01:05:14.126Z,22.67
2017-07-28T01:06:23.840Z,22.63
2017-07-28T01:07:34.243Z,22.6
2017-07-28T01:08:44.589Z,22.51
2017-07-28T01:09:54.931Z,22.49
2017-07-28T01:11:04.662Z,22.49
2017-07-28T01:12:15.004Z,22.44
2017-07-28T01:13:25.079Z,22.36
2017-07-28T01:14:35.423Z,22.42
2017-07-28T01:15:45.782Z,22.41
2017-07-28T01:16:56.120Z,22.48
2017-07-28T01:18:06.146Z,22.45
2017-07-28T01:19:16.536Z,22.48
2017-07-28T01:20:26.901Z,22.51
2017-07-28T01:21:37.280Z,22.52
2017-07-28T01:22:47.630Z,22.52
2017-07-28T01:23:57.653Z,22.46
2017-07-28T01:25:08.042Z,22.55
2017-07-28T01:26:18.094Z,22.42
2017-07-28T01:27:28.445Z,22.46
2017-07-28T01:28:38.798Z,22.49
2017-07-28T01:29:49.123Z,22.46
2017-07-28T01:30:59.543Z,22.45
2017-07-28T01:32:09.883Z,22.45
2017-07-28T01:33:19.941Z,22.52
2017-07-28T01:34:30.303Z,22.57
2017-07-28T01:35:40.658Z,22.51
2017-07-28T01:36:51.194Z,22.54
2017-07-28T01:38:01.537Z,22.57
2017-07-28T01:39:11.568Z,22.6
2017-07-28T01:40:21.901Z,22.57
2017-07-28T01:41:32.250Z,22.63
2017-07-28T01:42:42.292Z,22.55
2017-07-28T01:43:52.317Z,22.67
2017-07-28T01:45:02.673Z,22.63
2017-07-28T01:46:12.721Z,22.67
2017-07-28T01:47:23.074Z,22.55
2017-07-28T01:48:33.466Z,22.61
2017-07-28T01:49:43.809Z,22.52
2017-07-28T01:50:54.147Z,22.54
2017-07-28T01:52:04.188Z,22.52
2017-07-28T01:53:14.543Z,22.54
2017-07-28T01:54:24.949Z,22.39
2017-07-28T01:55:35.303Z,22.42
2017-07-28T01:56:45.640Z,22.45
2017-07-28T01:57:55.668Z,22.41
2017-07-28T01:59:06.014Z,22.38
2017-07-28T02:00:16.406Z,22.42
2017-07-28T02:01:26.738Z,22.45
2017-07-28T02:02:36.771Z,22.45
2017-07-28T02:03:47.120Z,22.42
2017-07-28T02:04:57.464Z,22.45
2017-07-28T02:06:07.231Z,22.41
2017-07-28T02:07:17.581Z,22.31
2017-07-28T02:08:27.630Z,22.38
2017-07-28T02:09:37.979Z,22.29
2017-07-28T02:10:47.707Z,22.42
2017-07-28T02:11:58.094Z,22.45
2017-07-28T02:13:08.437Z,22.45
2017-07-28T02:14:18.472Z,22.51
2017-07-28T02:15:28.510Z,22.54
2017-07-28T02:16:38.858Z,22.54
2017-07-28T02:17:48.887Z,22.54
2017-07-28T02:18:58.912Z,22.54
2017-07-28T02:20:08.966Z,22.57
2017-07-28T02:21:19.008Z,22.54
2017-07-28T02:22:29.038Z,22.6
2017-07-28T02:23:39.387Z,22.54
2017-07-28T02:24:49.745Z,22.57
2017-07-28T02:26:00.101Z,22.67
2017-07-28T02:27:10.445Z,22.67
2017-07-28T02:28:20.780Z,22.69
2017-07-28T02:29:31.140Z,22.7
2017-07-28T02:30:40.878Z,22.61
2017-07-28T02:31:51.219Z,22.7
2017-07-28T02:33:01.267Z,22.69
2017-07-28T02:34:11.017Z,22.67
2017-07-28T02:35:21.361Z,22.61
2017-07-28T02:36:31.406Z,22.67
2017-07-28T02:37:41.761Z,22.67
2017-07-28T02:38:52.115Z,22.6
2017-07-28T02:40:01.856Z,22.66
2017-07-28T02:41:11.902Z,22.7
2017-07-28T02:42:22.260Z,22.71
2017-07-28T02:43:32.598Z,22.73
2017-07-28T02:44:42.939Z,22.7
2017-07-28T02:45:53.298Z,22.69
2017-07-28T02:47:03.636Z,22.66
2017-07-28T02:48:13.993Z,22.6
2017-07-28T02:49:24.325Z,22.71
2017-07-28T02:50:34.693Z,22.67
2017-07-28T02:51:44.424Z,22.7
2017-07-28T02:52:54.802Z,22.7
2017-07-28T02:54:05.155Z,22.66
2017-07-28T02:55:15.490Z,22.71
2017-07-28T02:56:25.838Z,22.75
2017-07-28T02:57:36.183Z,22.7
2017-07-28T02:58:46.591Z,22.67
2017-07-28T02:59:56.933Z,22.73
2017-07-28T03:01:07.264Z,22.71
2017-07-28T03:33:29.596Z,20.11
2017-07-28T03:34:39.951Z,19.98
2017-07-28T03:35:50.281Z,20.04
2017-07-28T03:37:00.319Z,20.07
2017-07-28T03:38:10.672Z,20.07
2017-07-28T03:39:20.751Z,20.1
2017-07-28T03:40:31.092Z,20.22
2017-07-28T03:41:41.430Z,20.37
2017-07-28T03:42:51.165Z,20.49
2017-07-28T03:44:00.877Z,20.57
2017-07-28T03:45:11.289Z,20.72
2017-07-28T03:46:21.653Z,20.78
2017-07-28T03:47:31.995Z,20.9
2017-07-28T03:48:42.036Z,20.93
2017-07-28T03:49:52.381Z,21.18
2017-07-28T03:51:02.473Z,21.21
2017-07-28T03:52:12.820Z,21.33
2017-07-28T03:53:22.862Z,21.45
2017-07-28T03:54:33.214Z,21.46
2017-07-28T03:55:43.245Z,21.55
2017-07-28T03:56:53.660Z,21.64
2017-07-28T03:58:04.022Z,21.78
2017-07-28T03:59:14.369Z,21.86
2017-07-28T04:00:24.722Z,22
2017-07-28T04:01:34.750Z,22.15
2017-07-28T04:02:44.845Z,22.29
2017-07-28T04:03:55.209Z,22.42
2017-07-28T04:05:05.548Z,22.54
2017-07-28T04:06:15.602Z,22.7
2017-07-28T04:07:25.943Z,22.81
2017-07-28T04:08:36.344Z,22.92
2017-07-28T04:09:46.685Z,23.06
2017-07-28T04:10:57.021Z,23.15
2017-07-28T04:12:07.364Z,23.29
2017-07-28T04:13:17.706Z,23.5
2017-07-28T04:14:27.740Z,23.55
2017-07-28T04:15:38.099Z,23.74
2017-07-28T04:16:48.439Z,23.79
2017-07-28T04:17:58.771Z,23.94
2017-07-28T04:19:08.816Z,24.18
2017-07-28T04:20:18.589Z,24.33
2017-07-28T04:21:28.934Z,24.32
2017-07-28T04:22:39.282Z,24.42
2017-07-28T04:23:49.315Z,24.58
2017-07-28T04:24:59.680Z,25.19
2017-07-28T04:26:10.036Z,26.31
2017-07-28T04:27:20.384Z,26
2017-07-28T04:28:30.445Z,25.63
2017-07-28T04:29:40.792Z,25.24
2017-07-28T04:30:50.833Z,25.02
2017-07-28T04:32:01.236Z,24.86
2017-07-28T04:33:11.596Z,24.82
2017-07-28T04:34:21.955Z,24.78
2017-07-28T04:35:32.299Z,25.02
2017-07-28T04:36:42.326Z,25.01
2017-07-28T04:37:52.352Z,24.8
2017-07-28T04:39:02.699Z,24.69
2017-07-28T04:40:12.720Z,24.7
2017-07-28T04:41:23.070Z,24.55
2017-07-28T04:42:33.109Z,24.55
2017-07-28T04:43:43.489Z,24.51
2017-07-28T04:44:52.895Z,24.46
2017-07-28T04:46:02.936Z,24.46
2017-07-28T04:47:13.272Z,24.56
2017-07-28T04:48:23.610Z,24.56
2017-07-28T04:49:34.007Z,24.7
2017-07-28T04:50:44.352Z,24.77
2017-07-28T04:51:54.700Z,24.86
2017-07-28T04:53:05.048Z,24.87
2017-07-28T04:54:15.400Z,24.89
2017-07-28T04:55:25.807Z,24.83
2017-07-28T04:56:36.148Z,24.86
2017-07-28T04:57:46.485Z,24.87
2017-07-28T04:58:56.510Z,24.85
2017-07-28T05:00:06.543Z,25.02
2017-07-28T05:01:16.935Z,25.14
2017-07-28T05:02:27.306Z,25.17
2017-07-28T05:03:37.339Z,25.3
2017-07-28T05:04:47.693Z,25.32
2017-07-28T05:05:57.725Z,25.29
2017-07-28T05:07:07.801Z,25.33
2017-07-28T05:08:17.512Z,25.44
2017-07-28T05:09:27.859Z,25.42
2017-07-28T05:10:37.885Z,25.54
2017-07-28T05:11:48.247Z,25.51
2017-07-28T05:12:58.587Z,25.52
2017-07-28T05:14:08.939Z,25.56
2017-07-28T05:15:18.969Z,25.48
2017-07-28T05:16:29.002Z,25.47
2017-07-28T05:17:39.359Z,25.54
2017-07-28T05:18:49.403Z,25.85
2017-07-28T05:19:59.430Z,26.19
2017-07-28T05:21:09.792Z,26.9
2017-07-28T05:22:20.151Z,28.86
2017-07-28T05:23:30.506Z,30.1
2017-07-28T05:24:40.841Z,31.08
2017-07-28T05:25:51.177Z,31.88
2017-07-28T05:27:01.540Z,32.47
2017-07-28T05:28:11.895Z,32.43
2017-07-28T05:29:22.251Z,32.83
2017-07-28T05:30:32.673Z,33.58
2017-07-28T05:31:43.015Z,33.74
2017-07-28T05:32:52.741Z,34.18
2017-07-28T05:34:03.099Z,34.52
2017-07-28T05:35:13.535Z,34.89
2017-07-28T05:36:23.931Z,35.34
2017-07-28T05:37:33.980Z,35.6
2017-07-28T05:38:44.017Z,35.8
2017-07-28T05:39:54.368Z,35.24
2017-07-28T05:41:04.101Z,35.77
2017-07-28T05:42:14.132Z,36.18
2017-07-28T05:43:24.481Z,36.32
2017-07-28T05:44:34.815Z,36.33
2017-07-28T05:45:44.857Z,36.47
2017-07-28T05:46:55.203Z,36.59
2017-07-28T05:48:04.993Z,35.86
2017-07-28T05:49:15.351Z,34.24
2017-07-28T05:50:25.716Z,33.02
2017-07-28T05:51:36.073Z,32.12
2017-07-28T05:52:46.117Z,31.43
2017-07-28T05:53:56.529Z,30.97
2017-07-28T05:55:06.891Z,30.7
2017-07-28T05:56:16.918Z,30.35
2017-07-28T05:57:26.974Z,30.18
2017-07-28T05:58:37.020Z,29.95
2017-07-28T05:59:47.417Z,29.79
2017-07-28T06:00:57.775Z,29.66
2017-07-28T06:02:08.127Z,29.51
2017-07-28T06:03:18.177Z,29.3
2017-07-28T06:04:28.527Z,29.51
2017-07-28T06:05:38.545Z,29.63
2017-07-28T06:06:48.895Z,29.88
2017-07-28T06:07:59.227Z,29.63
2017-07-28T06:09:09.577Z,29.82
2017-07-28T06:10:19.931Z,29.84
2017-07-28T06:11:29.960Z,29.42
2017-07-28T06:12:40.065Z,29.38
2017-07-28T06:13:50.429Z,29.23
2017-07-28T06:15:00.792Z,29.21
2017-07-28T06:16:11.137Z,29.03
2017-07-28T06:17:21.487Z,28.83
2017-07-28T06:18:31.530Z,28.67
2017-07-28T06:19:41.883Z,28.36
2017-07-28T06:20:52.237Z,28.14
2017-07-28T06:22:02.589Z,27.99
2017-07-28T06:23:12.934Z,27.83
2017-07-28T06:24:23.275Z,27.52
2017-07-28T06:25:33.323Z,27.64
2017-07-28T06:26:43.348Z,27.72
2017-07-28T06:27:53.686Z,27.84
2017-07-28T06:29:04.051Z,27.89
2017-07-28T06:30:14.405Z,27.98
2017-07-28T06:31:24.436Z,28.03
2017-07-28T06:32:34.784Z,28.08
2017-07-28T06:33:45.151Z,28.02
2017-07-28T06:34:55.257Z,28.01
2017-07-28T06:36:05.616Z,27.94
2017-07-28T06:37:15.341Z,27.84
2017-07-28T06:38:25.707Z,27.84
2017-07-28T06:39:36.061Z,27.84
2017-07-28T06:40:46.386Z,27.87
2017-07-28T06:41:56.736Z,28.08
2017-07-28T06:43:07.079Z,28.31
2017-07-28T06:44:17.432Z,28.64
2017-07-28T06:45:27.154Z,28.83
2017-07-28T06:46:37.242Z,28.85
2017-07-28T06:47:47.310Z,28.95
2017-07-28T06:48:57.338Z,28.94
2017-07-28T06:50:07.692Z,28.49
2017-07-28T06:51:18.067Z,28.21
2017-07-28T06:52:28.422Z,27.99
2017-07-28T06:53:38.775Z,27.68
2017-07-28T06:54:49.157Z,27.65
2017-07-28T06:55:59.527Z,27.48
2017-07-28T06:57:09.878Z,27.33
2017-07-28T06:58:20.227Z,27.36
2017-07-28T06:59:30.572Z,27.41
2017-07-28T07:00:40.610Z,27.31
2017-07-28T07:01:50.976Z,27.37
2017-07-28T07:03:01.309Z,27.41
2017-07-28T07:04:11.409Z,27.52
2017-07-28T07:05:21.754Z,27.76
2017-07-28T07:06:32.122Z,27.91
2017-07-28T07:07:42.475Z,28.11
2017-07-28T07:08:52.828Z,28.23
2017-07-28T07:10:03.274Z,28.35
2017-07-28T07:11:13.610Z,28.48
2017-07-28T07:12:23.655Z,28.63
2017-07-28T07:13:34.025Z,28.67
2017-07-28T07:14:44.376Z,28.65
2017-07-28T07:15:54.468Z,28.63
2017-07-28T07:17:04.817Z,28.54
2017-07-28T07:18:14.846Z,28.35
2017-07-28T07:19:25.209Z,28.18
2017-07-28T07:20:35.559Z,27.96
2017-07-28T07:21:45.640Z,27.69
2017-07-28T07:22:55.984Z,27.59
2017-07-28T07:24:06.336Z,27.48
2017-07-28T07:25:16.693Z,27.42
2017-07-28T07:26:26.746Z,27.27
2017-07-28T07:27:37.147Z,27.21
2017-07-28T07:28:47.494Z,27.12
2017-07-28T07:29:57.840Z,27.33
2017-07-28T07:31:08.186Z,27.31
2017-07-28T07:32:17.919Z,27.08
2017-07-28T07:33:27.971Z,26.97
2017-07-28T07:34:38.341Z,26.99
2017-07-28T07:35:48.710Z,27.12
2017-07-28T07:36:59.079Z,27.27
2017-07-28T07:38:09.433Z,27.37
2017-07-28T07:39:19.474Z,27.43
2017-07-28T07:40:29.834Z,27.52
2017-07-28T07:41:40.188Z,27.65
2017-07-28T07:42:50.221Z,27.68
2017-07-28T07:44:00.583Z,27.89
2017-07-28T07:45:10.998Z,27.99
2017-07-28T07:46:21.379Z,28.01
2017-07-28T07:47:31.726Z,28.01
2017-07-28T07:48:42.069Z,28.06
2017-07-28T07:49:52.107Z,28.09
2017-07-28T07:51:02.183Z,28.16
2017-07-28T07:52:12.526Z,28.12
2017-07-28T07:53:22.880Z,27.87
2017-07-28T07:54:32.610Z,27.71
2017-07-28T07:55:42.958Z,27.61
2017-07-28T07:56:53.362Z,27.8
2017-07-28T07:58:03.087Z,27.87
2017-07-28T07:59:13.118Z,27.98
2017-07-28T08:00:23.509Z,28.01
2017-07-28T08:01:33.856Z,28.03
2017-07-28T08:02:44.272Z,28.16
2017-07-28T08:03:54.611Z,28.12
2017-07-28T08:05:04.977Z,28.08
2017-07-28T08:06:15.006Z,28.06
2017-07-28T08:07:25.391Z,28.03
2017-07-28T08:08:35.783Z,28.06
2017-07-28T08:09:46.121Z,28.08
2017-07-28T08:10:56.171Z,28.11
2017-07-28T08:12:06.528Z,28.17
2017-07-28T08:13:16.877Z,28.12
2017-07-28T08:14:27.281Z,28.16
2017-07-28T08:15:37.639Z,28.18
2017-07-28T08:16:47.374Z,28.17
2017-07-28T08:17:57.723Z,28.18
2017-07-28T08:19:08.083Z,28.16
2017-07-28T08:20:18.115Z,28.2
2017-07-28T08:21:28.467Z,28.21
2017-07-28T08:22:38.208Z,28.18
2017-07-28T08:23:48.562Z,28.18
2017-07-28T08:24:58.931Z,28.3
2017-07-28T08:26:09.301Z,28.23
2017-07-28T08:27:19.643Z,28.27
2017-07-28T08:28:30.002Z,28.39
2017-07-28T08:29:40.360Z,28.51
2017-07-28T08:30:50.396Z,28.65
2017-07-28T08:32:00.791Z,28.65
2017-07-28T08:33:11.159Z,28.79
2017-07-28T08:34:21.643Z,28.91
2017-07-28T08:35:31.975Z,28.92
2017-07-28T08:36:42.322Z,28.86
2017-07-28T08:37:52.725Z,28.82
2017-07-28T08:39:03.064Z,28.91
2017-07-28T08:40:13.414Z,28.9
2017-07-28T08:41:23.807Z,28.86
2017-07-28T08:42:33.857Z,28.85
2017-07-28T08:43:44.271Z,28.78
2017-07-28T08:44:54.643Z,28.68
2017-07-28T08:46:05.002Z,28.64
2017-07-28T08:47:15.361Z,28.7
2017-07-28T08:48:25.742Z,28.65
2017-07-28T08:49:36.121Z,28.7
2017-07-28T08:50:46.162Z,28.68
2017-07-28T08:51:56.222Z,28.68
2017-07-28T08:53:06.612Z,28.65
2017-07-28T08:54:16.655Z,28.73
2017-07-28T08:55:26.757Z,28.79
2017-07-28T08:56:37.196Z,28.8
2017-07-28T08:57:47.598Z,28.85
2017-07-28T08:58:57.724Z,28.88
2017-07-28T09:00:08.094Z,28.92
2017-07-28T09:01:18.874Z,29.05
2017-07-28T09:02:28.919Z,29.11
2017-07-28T09:03:38.977Z,29.15
2017-07-28T09:04:49.368Z,29.15
2017-07-28T09:05:59.418Z,29.1
2017-07-28T09:07:09.814Z,29.18
2017-07-28T09:08:19.548Z,29.15
2017-07-28T09:09:29.929Z,29.18
2017-07-28T09:10:40.331Z,29.13
2017-07-28T09:11:50.740Z,29.2
2017-07-28T09:13:00.842Z,29.23
2017-07-28T09:14:10.623Z,29.29
2017-07-28T09:15:20.976Z,29.38
2017-07-28T09:16:31.346Z,29.45
2017-07-28T09:17:41.495Z,29.55
2017-07-28T09:18:51.547Z,29.66
2017-07-28T09:20:01.922Z,29.72
2017-07-28T09:21:11.977Z,29.75
2017-07-28T09:22:22.368Z,29.76
2017-07-28T09:23:32.783Z,29.91
2017-07-28T09:24:42.905Z,29.91
2017-07-28T09:25:53.305Z,29.89
2017-07-28T09:27:03.761Z,29.84
2017-07-28T09:28:14.142Z,29.77
2017-07-28T09:29:24.509Z,29.72
2017-07-28T09:30:35.201Z,29.76
2017-07-28T09:31:45.254Z,29.73
2017-07-28T09:32:55.651Z,29.72
2017-07-28T09:34:06.057Z,29.77
2017-07-28T09:35:16.501Z,29.87
2017-07-28T09:36:26.330Z,29.75
2017-07-28T09:37:36.715Z,29.79
2017-07-28T09:38:47.081Z,29.76
2017-07-28T09:39:56.520Z,29.84
2017-07-28T09:41:06.294Z,29.89
2017-07-28T09:42:16.400Z,29.87
2017-07-28T09:43:26.800Z,29.95
2017-07-28T09:44:37.222Z,29.97
2017-07-28T09:45:47.587Z,30.02
2017-07-28T09:46:57.954Z,29.98
2017-07-28T09:48:08.064Z,29.91
2017-07-28T09:49:18.424Z,30.04
2017-07-28T09:50:28.803Z,30.02
2017-07-28T09:51:39.130Z,29.89
2017-07-28T09:52:49.509Z,29.91
2017-07-28T09:53:59.908Z,29.89
2017-07-28T09:55:10.308Z,29.89
2017-07-28T09:56:20.355Z,29.77
2017-07-28T09:57:30.729Z,29.89
2017-07-28T09:58:41.100Z,29.77
2017-07-28T09:59:51.470Z,29.89
2017-07-28T10:01:01.855Z,29.94
2017-07-28T10:02:11.928Z,30.07
2017-07-28T10:03:22.316Z,30.02
2017-07-28T10:04:32.761Z,30.04
2017-07-28T10:05:43.147Z,30.04
2017-07-28T10:06:53.489Z,30.1
2017-07-28T10:08:03.897Z,30.16
2017-07-28T10:09:13.997Z,30.19
2017-07-28T10:10:24.365Z,30.21
2017-07-28T10:11:34.600Z,30.19
2017-07-28T10:12:44.717Z,30.25
2017-07-28T10:13:55.135Z,30.28
2017-07-28T10:15:05.294Z,30.29
2017-07-28T10:16:15.686Z,30.37
2017-07-28T10:17:26.169Z,30.44
2017-07-28T10:18:36.558Z,30.48
2017-07-28T10:19:46.628Z,30.47
2017-07-28T10:20:57.011Z,30.44
2017-07-28T10:22:07.378Z,30.59
2017-07-28T10:23:17.801Z,30.69
2017-07-28T10:24:27.540Z,30.7
2017-07-28T10:25:37.955Z,30.85
2017-07-28T10:26:48.306Z,30.89
2017-07-28T10:27:58.694Z,30.86
2017-07-28T10:29:08.828Z,30.88
2017-07-28T10:30:19.277Z,30.91
2017-07-28T10:31:29.654Z,31.04
2017-07-28T10:32:39.730Z,31.03
2017-07-28T10:33:49.773Z,31.23
2017-07-28T10:34:59.886Z,31.26
2017-07-28T10:36:10.242Z,31.36
2017-07-28T10:37:20.620Z,31.41
2017-07-28T10:38:31.092Z,31.41
2017-07-28T10:39:41.138Z,31.44
2017-07-28T10:40:51.229Z,31.38
2017-07-28T10:42:01.610Z,31.4
2017-07-28T10:43:11.955Z,31.41
2017-07-28T10:44:22.304Z,31.47
2017-07-28T10:45:32.730Z,31.47
2017-07-28T10:46:43.093Z,31.34
2017-07-28T10:47:53.163Z,31.44
2017-07-28T10:49:03.504Z,31.52
2017-07-28T10:50:14.061Z,31.5
2017-07-28T10:51:24.683Z,31.53
2017-07-28T10:52:35.085Z,31.58
2017-07-28T10:53:45.189Z,31.56
2017-07-28T10:54:55.619Z,31.68
2017-07-28T10:56:05.756Z,31.82
2017-07-28T10:57:16.295Z,31.88
2017-07-28T10:58:26.730Z,31.94
2017-07-28T10:59:37.176Z,31.97
2017-07-28T11:00:47.628Z,32.01
2017-07-28T11:01:58.033Z,32.05
2017-07-28T11:03:08.451Z,31.87
2017-07-28T11:04:18.858Z,31.9
2017-07-28T11:05:29.216Z,31.93
2017-07-28T11:06:39.349Z,31.87
2017-07-28T11:07:49.705Z,31.88
2017-07-28T11:09:00.067Z,31.97
2017-07-28T11:10:10.223Z,32.1
2017-07-28T11:11:20.263Z,32.15
2017-07-28T11:12:30.622Z,32.17
2017-07-28T11:13:40.991Z,32.17
2017-07-28T11:14:51.337Z,32.24
2017-07-28T11:16:01.445Z,32.35
2017-07-28T11:17:11.490Z,32.39
2017-07-28T11:18:21.598Z,32.5
2017-07-28T11:19:31.675Z,32.53
2017-07-28T11:20:42.077Z,32.62
2017-07-28T11:21:52.519Z,32.47
2017-07-28T11:23:02.907Z,32.46
2017-07-28T11:24:13.361Z,32.49
2017-07-28T11:25:23.803Z,32.45
2017-07-28T11:26:34.207Z,32.42
2017-07-28T11:27:44.323Z,32.34
2017-07-28T11:28:54.726Z,32.42
2017-07-28T11:30:05.078Z,32.35
2017-07-28T11:31:15.465Z,32.5
2017-07-28T11:32:25.810Z,32.43
2017-07-28T11:33:36.236Z,32.39
2017-07-28T11:34:46.327Z,32.31
2017-07-28T11:35:56.754Z,32.35
2017-07-28T11:37:06.819Z,32.37
2017-07-28T11:38:17.222Z,32.5
2017-07-28T11:39:27.659Z,32.56
2017-07-28T11:40:37.713Z,32.17
2017-07-28T11:41:48.092Z,32.17
2017-07-28T11:42:58.472Z,32.38
2017-07-28T11:44:08.884Z,32.52
2017-07-28T11:45:18.632Z,32.59
2017-07-28T11:46:29.032Z,32.67
2017-07-28T11:47:39.134Z,32.62
2017-07-28T11:48:48.890Z,32.52
2017-07-28T11:49:59.267Z,32.53
2017-07-28T11:51:09.619Z,32.59
2017-07-28T11:52:19.973Z,32.57
2017-07-28T11:53:30.063Z,32.47
2017-07-28T11:54:40.462Z,32.59
2017-07-28T11:55:50.830Z,32.65
2017-07-28T11:57:01.309Z,32.64
2017-07-28T11:58:11.391Z,32.68
2017-07-28T11:59:21.787Z,32.57
2017-07-28T12:00:31.532Z,32.71
2017-07-28T12:01:41.894Z,32.62
2017-07-28T12:02:52.362Z,32.76
2017-07-28T12:04:02.799Z,32.89
2017-07-28T12:05:13.157Z,32.19
2017-07-28T12:06:23.551Z,31.82
2017-07-28T12:07:33.624Z,31.56
2017-07-28T12:08:44.161Z,31.52
2017-07-28T12:09:54.524Z,31.52
2017-07-28T12:11:04.996Z,31.67
2017-07-28T12:12:15.389Z,31.77
2017-07-28T12:13:25.765Z,31.81
2017-07-28T12:14:36.194Z,31.98
2017-07-28T12:15:46.243Z,32.09
2017-07-28T12:16:56.389Z,32.32
2017-07-28T12:18:06.446Z,32.5
2017-07-28T12:19:16.552Z,32.67
2017-07-28T12:20:27.056Z,32.9
2017-07-28T12:21:37.160Z,33.21
2017-07-28T12:22:47.531Z,33.28
2017-07-28T12:23:57.887Z,33.34
2017-07-28T12:25:08.261Z,33.52
2017-07-28T12:26:18.775Z,33.61
2017-07-28T12:27:29.152Z,33.66
2017-07-28T12:28:39.543Z,33.75
2017-07-28T12:29:50.112Z,33.93
2017-07-28T12:31:00.195Z,34.02
2017-07-28T12:32:10.759Z,34.14
2017-07-28T12:33:21.164Z,34.21
2017-07-28T12:34:31.564Z,34.3
2017-07-28T12:35:41.956Z,34.36
2017-07-28T12:36:52.399Z,34.46
2017-07-28T12:38:02.791Z,34.37
2017-07-28T12:39:12.891Z,34.43
2017-07-28T12:40:23.290Z,34.43
2017-07-28T12:41:33.684Z,34.29
2017-07-28T12:42:43.470Z,34.29
2017-07-28T12:43:53.626Z,34.36
2017-07-28T12:45:04.153Z,34.37
2017-07-28T12:46:14.584Z,34.3
2017-07-28T12:47:24.963Z,34.43
2017-07-28T12:48:35.052Z,34.63
2017-07-28T12:49:45.490Z,34.78
2017-07-28T12:50:55.908Z,34.93
2017-07-28T12:52:06.306Z,34.89
2017-07-28T12:53:16.701Z,34.66
2017-07-28T12:54:27.106Z,34.59
2017-07-28T12:55:37.263Z,34.41
2017-07-28T12:56:47.628Z,34.36
2017-07-28T12:57:57.696Z,34.06
2017-07-28T12:59:08.085Z,34.08
2017-07-28T13:00:17.855Z,34.06
2017-07-28T13:01:28.259Z,33.74
2017-07-28T13:02:38.722Z,33.77
2017-07-28T13:03:48.840Z,33.69
2017-07-28T13:04:58.981Z,33.65
2017-07-28T13:06:09.335Z,33.69
2017-07-28T13:07:19.427Z,33.69
2017-07-28T13:08:29.795Z,33.89
2017-07-28T13:09:40.169Z,34.03
2017-07-28T13:10:50.601Z,34.03
2017-07-28T13:12:00.959Z,34.06
2017-07-28T13:13:11.393Z,34
2017-07-28T13:14:21.491Z,34.12
2017-07-28T13:15:31.874Z,34.1
2017-07-28T13:16:42.241Z,34.18
2017-07-28T13:17:52.632Z,34.33
2017-07-28T13:19:02.784Z,34.4
2017-07-28T13:20:13.304Z,34.66
2017-07-28T13:21:23.822Z,34.93
2017-07-28T13:22:34.196Z,34.71
2017-07-28T13:23:44.628Z,34.58
2017-07-28T13:24:55.111Z,34.55
2017-07-28T13:26:05.658Z,34.51
2017-07-28T13:27:16.049Z,34.48
2017-07-28T13:28:26.465Z,34.4
2017-07-28T13:29:36.865Z,34.29
2017-07-28T13:30:47.251Z,34.29
2017-07-28T13:31:57.630Z,34.11
2017-07-28T13:33:08.031Z,33.74
2017-07-28T13:34:18.434Z,33.63
2017-07-28T13:35:28.799Z,33.34
2017-07-28T13:36:39.317Z,33.17
2017-07-28T13:37:49.821Z,33.05
2017-07-28T13:38:59.921Z,32.98
2017-07-28T13:40:10.338Z,32.87
2017-07-28T13:41:20.749Z,32.75
2017-07-28T13:42:31.175Z,32.57
2017-07-28T13:43:41.593Z,32.49
2017-07-28T13:44:51.667Z,32.42
2017-07-28T13:46:02.034Z,32.31
2017-07-28T13:47:12.485Z,32.25
2017-07-28T13:48:22.656Z,32.39
2017-07-28T13:49:33.118Z,32.37
2017-07-28T13:50:43.595Z,32.27
2017-07-28T13:51:53.734Z,32.38
2017-07-28T13:53:04.346Z,32.17
2017-07-28T13:54:14.583Z,32.24
2017-07-28T13:55:25.188Z,32.25
2017-07-28T13:56:35.723Z,32.3
2017-07-28T13:57:46.317Z,32.34
2017-07-28T13:58:56.872Z,32.45
2017-07-28T14:00:08.030Z,32.64
2017-07-28T14:01:18.561Z,32.68
2017-07-28T14:02:29.174Z,32.61
2017-07-28T14:03:39.613Z,32.54
2017-07-28T14:04:50.256Z,32.47
2017-07-28T14:06:00.388Z,32.39
2017-07-28T14:07:10.798Z,32.31
2017-07-28T14:08:21.181Z,32.17
2017-07-28T14:09:31.256Z,32.1
2017-07-28T14:10:41.669Z,32
2017-07-28T14:11:52.164Z,32.03
2017-07-28T14:13:02.556Z,32.09
2017-07-28T14:14:12.994Z,32.08
2017-07-28T14:15:23.459Z,32.05
2017-07-28T14:16:33.935Z,32.1
2017-07-28T14:17:43.757Z,32.1
2017-07-28T14:18:53.544Z,32.06
2017-07-28T14:20:04.013Z,31.88
2017-07-28T14:21:14.482Z,31.75
2017-07-28T14:22:24.889Z,31.74
2017-07-28T14:23:35.449Z,31.75
2017-07-28T14:24:45.781Z,31.82
2017-07-28T14:25:55.700Z,31.95
2017-07-28T14:27:05.794Z,32.17
2017-07-28T14:28:16.240Z,32.35
2017-07-28T14:29:26.320Z,32.39
2017-07-28T14:30:36.720Z,32.61
2017-07-28T14:31:47.173Z,32.62
2017-07-28T14:32:57.233Z,32.5
2017-07-28T14:34:07.318Z,32.19
2017-07-28T14:35:17.692Z,31.94
2017-07-28T14:36:28.066Z,31.8
2017-07-28T14:37:38.440Z,31.65
2017-07-28T14:38:48.831Z,31.6
2017-07-28T14:39:59.241Z,31.58
2017-07-28T14:41:09.074Z,31.47
2017-07-28T14:42:19.191Z,31.43
2017-07-28T14:43:29.546Z,31.44
2017-07-28T14:44:39.936Z,31.44
2017-07-28T14:45:49.970Z,31.44
2017-07-28T14:47:00.464Z,31.59
2017-07-28T14:48:10.517Z,31.68
2017-07-28T14:49:20.611Z,31.71
2017-07-28T14:50:30.672Z,31.77
2017-07-28T14:51:40.777Z,31.77
2017-07-28T14:52:51.241Z,31.78
2017-07-28T14:54:01.299Z,31.75
2017-07-28T14:55:11.683Z,31.7
2017-07-28T14:56:22.053Z,31.75
2017-07-28T14:57:31.802Z,31.7
2017-07-28T14:58:42.251Z,31.75
2017-07-28T14:59:52.643Z,31.75
2017-07-28T15:01:02.704Z,31.8
2017-07-28T15:02:13.065Z,31.87
2017-07-28T15:03:23.431Z,31.93
2017-07-28T15:04:33.281Z,31.87
2017-07-28T15:05:43.427Z,31.94
2017-07-28T15:06:53.823Z,32
2017-07-28T15:08:04.221Z,32.06
2017-07-28T15:09:14.585Z,32.17
2017-07-28T15:10:24.679Z,32.15
2017-07-28T15:11:34.799Z,32.37
2017-07-28T15:12:45.175Z,32.34
2017-07-28T15:13:55.576Z,32.38
2017-07-28T15:15:05.962Z,32.46
2017-07-28T15:16:16.470Z,32.34
2017-07-28T15:17:26.926Z,32.38
2017-07-28T15:18:37.275Z,32.42
2017-07-28T15:19:47.655Z,32.52
2017-07-28T15:20:58.033Z,32.39
2017-07-28T15:22:08.505Z,32.3
2017-07-28T15:23:18.900Z,32.23
2017-07-28T15:24:29.279Z,32.12
2017-07-28T15:25:39.724Z,32.13
2017-07-28T15:26:49.780Z,32.16
2017-07-28T15:28:00.212Z,32.1
2017-07-28T15:29:10.320Z,32.17
2017-07-28T15:30:20.370Z,32.19
2017-07-28T15:31:30.463Z,32.17
2017-07-28T15:32:40.853Z,31.98
2017-07-28T15:33:51.002Z,31.93
2017-07-28T15:35:01.470Z,31.8
2017-07-28T15:36:11.522Z,31.78
2017-07-28T15:37:21.906Z,31.8
2017-07-28T15:38:32.367Z,31.86
2017-07-28T15:39:42.897Z,31.75